Time;durP1;ratioP1;P1;durP2;ratioP2;P2;SDS_P1;SDS_P2;PMS_P1;PMS_P2;Temp;Humidity;BMP_temperature;BMP_pressure;BME280_temperature;BME280_humidity;BME280_pressure;Samples;Min_cycle;Max_cycle;Signal;HPM_P1;HPM_P2
2021/05/04 00:01:25;;;;;;;1.33;1.08;;;;;;;7.75;54.35;98785.31;2006481;80;20161;-75
2021/05/04 00:04:26;;;;;;;1.48;0.90;;;;;;;7.72;54.62;98772.41;2006864;80;20202;-74
2021/05/04 00:07:28;;;;;;;1.98;0.96;;;;;;;7.71;54.65;98765.50;2006634;80;20193;-74
2021/05/04 00:10:29;;;;;;;0.96;0.96;;;;;;;7.72;54.38;98766.34;2006759;80;20247;-75
2021/05/04 00:13:31;;;;;;;1.01;0.90;;;;;;;7.70;54.53;98758.63;2006830;80;20222;-75
2021/05/04 00:16:33;;;;;;;1.44;1.33;;;;;;;7.69;54.93;98753.44;2006190;80;20200;-75
2021/05/04 00:19:34;;;;;;;1.08;0.96;;;;;;;7.68;54.71;98747.44;2006127;80;20611;-75
2021/05/04 00:22:36;;;;;;;0.91;0.80;;;;;;;7.78;54.60;98758.59;2007406;80;20211;-75
2021/05/04 00:25:38;;;;;;;1.11;0.90;;;;;;;7.87;54.39;98738.75;2006047;80;20176;-76
2021/05/04 00:28:40;;;;;;;0.90;0.71;;;;;;;7.92;54.09;98743.06;2006462;80;20285;-75
2021/05/04 00:31:41;;;;;;;1.25;0.86;;;;;;;7.96;54.00;98729.25;2010234;80;20238;-75
2021/05/04 00:34:43;;;;;;;0.80;0.80;;;;;;;7.98;53.89;98730.09;2006226;80;20658;-75
2021/05/04 00:37:45;;;;;;;1.75;1.00;;;;;;;8.00;53.88;98726.63;2006224;80;20853;-75
2021/05/04 00:40:46;;;;;;;2.36;0.90;;;;;;;8.00;53.84;98725.78;2006338;80;20177;-74
2021/05/04 00:43:49;;;;;;;1.20;1.00;;;;;;;8.06;53.69;98730.91;2006978;80;20369;-74
2021/05/04 00:46:50;;;;;;;0.90;0.82;;;;;;;8.10;53.65;98711.94;2006434;80;20184;-75
2021/05/04 00:49:52;;;;;;;4.45;0.98;;;;;;;8.11;53.61;98709.34;2005909;80;20620;-75
2021/05/04 00:52:54;;;;;;;1.70;0.90;;;;;;;8.17;53.49;98711.88;2006405;80;20838;-75
2021/05/04 00:56:00;;;;;;;1.20;1.10;;;;;;;8.21;53.21;98704.97;2005855;80;20202;-74
2021/05/04 00:59:03;;;;;;;0.99;0.89;;;;;;;8.22;53.20;98698.91;2006059;80;20226;-73
2021/05/04 01:02:05;;;;;;;1.30;1.01;;;;;;;8.22;53.28;98698.91;2005942;80;20214;-72
2021/05/04 01:05:08;;;;;;;1.29;1.19;;;;;;;8.27;53.18;98689.44;2009730;80;20374;-74
2021/05/04 01:08:10;;;;;;;5.44;1.04;;;;;;;8.32;53.28;98681.63;2006722;80;20185;-75
2021/05/04 01:11:11;;;;;;;1.83;0.93;;;;;;;8.29;53.44;98672.16;2006076;80;20259;-74
2021/05/04 01:14:14;;;;;;;1.05;0.90;;;;;;;8.32;53.38;98660.94;2006116;80;20713;-74
2021/05/04 01:17:16;;;;;;;1.08;0.90;;;;;;;8.36;53.32;98658.34;2006258;80;20377;-74
2021/05/04 01:20:17;;;;;;;1.34;0.94;;;;;;;8.37;53.54;98657.47;2006193;80;20169;-74
2021/05/04 01:23:19;;;;;;;1.27;1.17;;;;;;;8.36;53.49;98653.16;2006462;80;20658;-74
2021/05/04 01:26:21;;;;;;;1.55;0.80;;;;;;;8.42;53.35;98642.75;2005362;80;20184;-74
2021/05/04 01:29:22;;;;;;;1.77;0.99;;;;;;;8.43;53.39;98628.09;2005855;80;20687;-74
2021/05/04 01:32:25;;;;;;;1.27;1.04;;;;;;;8.50;53.29;98627.19;2006054;80;20300;-74
2021/05/04 01:35:27;;;;;;;0.88;0.85;;;;;;;8.52;53.45;98627.19;2006334;80;20283;-74
2021/05/04 01:38:29;;;;;;;0.81;0.81;;;;;;;8.53;53.40;98616.81;2006776;80;20361;-74
2021/05/04 01:41:30;;;;;;;1.42;1.15;;;;;;;8.54;53.49;98607.31;2005241;80;20412;-75
2021/05/04 01:44:32;;;;;;;1.13;1.13;;;;;;;8.51;53.74;98605.63;2006129;80;20830;-74
2021/05/04 01:47:34;;;;;;;1.25;0.94;;;;;;;8.52;53.84;98593.56;2005987;80;20185;-75
2021/05/04 01:50:36;;;;;;;1.10;1.00;;;;;;;8.55;53.87;98596.09;2007195;80;20204;-74
2021/05/04 01:53:37;;;;;;;2.21;1.30;;;;;;;8.51;54.08;98576.31;2006792;80;20218;-74
2021/05/04 01:56:39;;;;;;;1.56;1.34;;;;;;;8.50;54.31;98574.59;2010727;80;20181;-75
2021/05/04 01:59:41;;;;;;;2.54;1.54;;;;;;;8.52;54.47;98571.13;2007218;80;20270;-75
2021/05/04 02:02:42;;;;;;;1.69;1.10;;;;;;;8.56;54.52;98562.44;2007972;80;20184;-75
2021/05/04 02:05:44;;;;;;;2.11;1.29;;;;;;;8.60;54.50;98563.28;2008162;80;20247;-74
2021/05/04 02:08:46;;;;;;;2.84;1.69;;;;;;;8.62;54.73;98567.59;2008446;80;20306;-74
2021/05/04 02:11:47;;;;;;;2.79;1.31;;;;;;;8.67;54.49;98562.34;2008343;80;20194;-75
2021/05/04 02:14:52;;;;;;;1.60;1.04;;;;;;;8.77;54.22;98554.47;2008180;80;20654;-75
2021/05/04 02:17:54;;;;;;;1.52;1.41;;;;;;;8.78;54.39;98548.41;2007770;80;20295;-75
2021/05/04 02:20:55;;;;;;;1.45;1.29;;;;;;;8.76;54.44;98555.34;2007152;80;20172;-75
2021/05/04 02:23:57;;;;;;;7.71;1.54;;;;;;;8.77;54.46;98546.69;2009092;80;20661;-75
2021/05/04 02:26:58;;;;;;;2.04;1.39;;;;;;;8.78;54.56;98540.66;2007639;80;20218;-74
2021/05/04 02:30:03;;;;;;;2.11;1.49;;;;;;;8.79;54.70;98533.75;2008701;80;20177;-75
2021/05/04 02:33:04;;;;;;;2.36;1.76;;;;;;;8.87;54.33;98525.91;2008326;80;20210;-75
2021/05/04 02:36:07;;;;;;;1.58;1.48;;;;;;;8.90;54.17;98526.72;2007819;80;20214;-75
2021/05/04 02:39:09;;;;;;;2.91;1.85;;;;;;;8.97;53.97;98517.13;2008213;80;20185;-75
2021/05/04 02:42:10;;;;;;;2.78;1.41;;;;;;;9.02;53.80;98508.47;2007811;80;20209;-75
2021/05/04 02:45:13;;;;;;;2.03;1.90;;;;;;;9.04;53.85;98500.66;2008648;80;20177;-74
2021/05/04 02:48:15;;;;;;;1.88;1.76;;;;;;;9.05;53.81;98500.66;2008811;80;20931;-74
2021/05/04 02:51:17;;;;;;;2.72;1.91;;;;;;;9.11;53.67;98504.03;2008159;80;20272;-74
2021/05/04 02:54:19;;;;;;;2.96;1.70;;;;;;;9.15;53.60;98496.19;2008187;80;20681;-74
2021/05/04 02:57:21;;;;;;;1.92;1.74;;;;;;;9.18;53.38;98485.81;2008408;80;20220;-74
2021/05/04 03:00:22;;;;;;;1.59;1.33;;;;;;;9.21;53.32;98479.72;2008832;80;20198;-75
2021/05/04 03:03:25;;;;;;;3.67;1.96;;;;;;;9.22;53.40;98482.31;2007411;80;20241;-75
2021/05/04 03:06:26;;;;;;;2.59;1.50;;;;;;;9.24;53.22;98484.88;2007919;80;20262;-75
2021/05/04 03:09:28;;;;;;;1.46;1.36;;;;;;;9.29;52.94;98476.16;2007904;80;20475;-75
2021/05/04 03:12:29;;;;;;;1.48;1.14;;;;;;;9.30;53.10;98469.22;2006592;80;20639;-75
2021/05/04 03:15:31;;;;;;;2.09;1.39;;;;;;;9.30;53.00;98467.50;2007458;80;20243;-76
2021/05/04 03:18:33;;;;;;;1.80;1.50;;;;;;;9.35;52.73;98462.28;2007393;80;20230;-75
2021/05/04 03:21:35;;;;;;;2.14;1.76;;;;;;;9.37;52.77;98458.78;2006498;80;20238;-75
2021/05/04 03:24:37;;;;;;;1.34;1.24;;;;;;;9.39;52.54;98453.56;2006902;80;20197;-75
2021/05/04 03:27:38;;;;;;;3.97;1.40;;;;;;;9.40;52.73;98450.09;2006711;80;20250;-74
2021/05/04 03:30:40;;;;;;;2.84;1.21;;;;;;;9.43;52.42;98449.19;2006266;80;20161;-74
2021/05/04 03:33:42;;;;;;;2.96;1.20;;;;;;;9.50;52.21;98435.25;2006698;80;20707;-75
2021/05/04 03:36:44;;;;;;;5.70;1.24;;;;;;;9.54;52.24;98434.34;2006786;80;20196;-75
2021/05/04 03:39:45;;;;;;;1.25;1.10;;;;;;;9.54;52.13;98427.44;2006684;80;20173;-74
2021/05/04 03:42:47;;;;;;;2.41;1.60;;;;;;;9.58;51.69;98423.91;2006913;80;20165;-75
2021/05/04 03:45:49;;;;;;;1.30;1.20;;;;;;;9.61;51.61;98428.19;2006289;80;20688;-75
2021/05/04 03:48:50;;;;;;;1.29;0.99;;;;;;;9.66;51.32;98428.94;2007410;80;20206;-74
2021/05/04 03:51:52;;;;;;;1.17;1.00;;;;;;;9.70;51.29;98430.63;2007627;80;20657;-74
2021/05/04 03:54:56;;;;;;;3.39;1.29;;;;;;;9.71;51.31;98416.78;2006922;80;20206;-73
2021/05/04 03:57:58;;;;;;;0.99;0.93;;;;;;;9.75;51.00;98422.78;2007640;80;20206;-74
2021/05/04 04:01:00;;;;;;;1.10;0.98;;;;;;;9.80;50.49;98416.63;2006666;80;20173;-74
2021/05/04 04:04:02;;;;;;;1.49;1.02;;;;;;;9.83;50.40;98420.88;2006979;80;20216;-74
2021/05/04 04:07:04;;;;;;;2.20;0.80;;;;;;;9.87;50.18;98423.41;2006341;80;20173;-74
2021/05/04 04:10:07;;;;;;;1.52;0.98;;;;;;;9.91;50.22;98426.81;2006268;80;20214;-74
2021/05/04 04:13:09;;;;;;;1.13;0.95;;;;;;;9.90;50.17;98413.00;2006631;80;20674;-74
2021/05/04 04:16:11;;;;;;;0.85;0.85;;;;;;;9.95;49.86;98423.28;2006631;80;20188;-74
2021/05/04 04:19:13;;;;;;;1.86;0.90;;;;;;;9.96;49.85;98420.66;2006833;80;20225;-75
2021/05/04 04:22:16;;;;;;;1.54;0.95;;;;;;;10.00;49.38;98418.88;2006989;80;20218;-75
2021/05/04 04:25:17;;;;;;;1.35;1.00;;;;;;;10.03;49.41;98412.75;2006656;80;20202;-76
2021/05/04 04:28:19;;;;;;;0.70;0.63;;;;;;;10.04;49.54;98417.06;2006482;80;20648;-74
2021/05/04 04:31:21;;;;;;;0.76;0.76;;;;;;;10.07;48.91;98419.63;2006176;80;20176;-75
2021/05/04 04:34:22;;;;;;;1.84;0.74;;;;;;;10.12;48.64;98415.22;2006529;80;20265;-73
2021/05/04 04:37:24;;;;;;;2.53;0.70;;;;;;;10.16;48.55;98422.91;2007129;80;20173;-74
2021/05/04 04:40:26;;;;;;;2.35;0.51;;;;;;;10.23;47.87;98413.28;2006584;80;20177;-74
2021/05/04 04:43:27;;;;;;;0.60;0.60;;;;;;;10.26;47.91;98416.69;2006428;80;20216;-74
2021/05/04 04:46:39;;;;;;;2.09;0.63;;;;;;;10.30;46.97;98420.09;2006702;80;20234;-75
2021/05/04 04:49:41;;;;;;;1.19;0.56;;;;;;;10.36;47.02;98429.47;2006184;80;20208;-74
2021/05/04 04:52:43;;;;;;;0.94;0.50;;;;;;;10.36;47.25;98430.34;2006568;80;20213;-74
2021/05/04 04:55:45;;;;;;;3.51;0.55;;;;;;;10.39;46.32;98419.88;2006517;80;20497;-74
2021/05/04 04:58:46;;;;;;;0.39;0.39;;;;;;;10.43;46.10;98424.16;2006155;80;20226;-75
2021/05/04 05:01:48;;;;;;;1.95;0.44;;;;;;;10.48;45.40;98419.72;2007050;80;20177;-75
2021/05/04 05:04:50;;;;;;;1.99;0.40;;;;;;;10.54;44.58;98410.97;2006286;80;20218;-75
2021/05/04 05:07:51;;;;;;;0.52;0.30;;;;;;;10.57;44.52;98409.16;2005920;80;20195;-77
2021/05/04 05:10:53;;;;;;;0.63;0.40;;;;;;;10.62;44.30;98398.69;2007099;80;20173;-75
2021/05/04 05:14:00;;;;;;;1.25;0.40;;;;;;;10.67;42.60;98389.06;2006028;80;20701;-76
2021/05/04 05:17:03;;;;;;;1.35;0.40;;;;;;;10.76;42.35;98395.78;2006296;80;20246;-74
2021/05/04 05:20:05;;;;;;;1.46;0.32;;;;;;;10.81;41.81;98392.22;2006053;80;20190;-74
2021/05/04 05:23:07;;;;;;;0.41;0.30;;;;;;;10.85;42.13;98393.00;2006827;80;20309;-74
2021/05/04 05:26:09;;;;;;;0.73;0.40;;;;;;;10.88;41.61;98388.59;2006376;80;20196;-74
2021/05/04 05:29:11;;;;;;;2.78;0.36;;;;;;;10.91;40.74;98395.47;2006482;80;20677;-75
2021/05/04 05:32:15;;;;;;;0.88;0.40;;;;;;;10.98;40.55;98388.41;2006437;80;20200;-76
2021/05/04 05:35:16;;;;;;;0.30;0.30;;;;;;;11.05;39.86;98395.16;2005615;80;20661;-75
2021/05/04 05:38:18;;;;;;;0.84;0.50;;;;;;;11.12;39.39;98383.72;2006669;80;20218;-75
2021/05/04 05:41:20;;;;;;;0.96;0.35;;;;;;;11.16;39.65;98390.59;2005940;80;20429;-73
2021/05/04 05:44:22;;;;;;;1.13;0.31;;;;;;;11.14;39.45;98401.03;2006195;80;20624;-76
2021/05/04 05:47:24;;;;;;;3.70;0.40;;;;;;;11.14;39.99;98394.97;2005706;80;20595;-77
2021/05/04 05:50:26;;;;;;;0.45;0.31;;;;;;;11.16;39.81;98399.25;2005750;80;20165;-76
2021/05/04 05:53:27;;;;;;;0.93;0.40;;;;;;;11.16;40.19;98391.44;2006757;80;20189;-76
2021/05/04 05:56:29;;;;;;;1.17;0.40;;;;;;;11.16;40.23;98395.78;2006416;80;20677;-77
2021/05/04 05:59:31;;;;;;;3.24;0.40;;;;;;;11.14;39.92;98400.16;2006289;80;20232;-76
2021/05/04 06:02:32;;;;;;;1.48;0.49;;;;;;;11.05;40.81;98406.41;2006438;80;20206;-76
2021/05/04 06:05:34;;;;;;;2.60;0.40;;;;;;;10.97;41.90;98417.88;2006980;80;20177;-76
2021/05/04 06:08:36;;;;;;;2.33;0.30;;;;;;;10.80;43.18;98442.44;2006441;80;20622;-76
2021/05/04 06:11:38;;;;;;;3.17;0.45;;;;;;;10.68;44.45;98437.50;2005765;80;20165;-77
2021/05/04 06:14:40;;;;;;;1.26;0.63;;;;;;;10.58;45.57;98431.63;2006676;80;20203;-77
2021/05/04 06:17:41;;;;;;;0.40;0.30;;;;;;;10.44;47.29;98445.78;2004787;80;20883;-78
2021/05/04 06:20:43;;;;;;;0.54;0.36;;;;;;;10.24;49.09;98462.56;2004667;80;20778;-79
2021/05/04 06:23:45;;;;;;;1.02;0.40;;;;;;;10.04;49.50;98446.44;2004945;80;20210;-78
2021/05/04 06:26:46;;;;;;;0.89;0.34;;;;;;;9.94;51.62;98461.31;2006024;80;20192;-79
2021/05/04 06:29:48;;;;;;;0.49;0.36;;;;;;;9.71;51.92;98449.63;2006580;80;20800;-77
2021/05/04 06:32:50;;;;;;;2.09;0.46;;;;;;;9.62;53.05;98453.22;2005274;80;20181;-77
2021/05/04 06:35:52;;;;;;;0.59;0.43;;;;;;;9.53;54.72;98451.63;2006938;80;20204;-80
2021/05/04 06:38:54;;;;;;;1.05;0.40;;;;;;;9.41;53.91;98445.78;2013918;80;20652;-80
2021/05/04 06:41:55;;;;;;;1.56;0.40;;;;;;;9.30;54.30;98448.50;2017869;80;20640;-82
2021/05/04 06:44:57;;;;;;;1.36;0.40;;;;;;;9.19;56.12;98443.50;2016790;80;20189;-77
2021/05/04 06:47:59;;;;;;;1.63;0.50;;;;;;;9.08;57.46;98461.75;2013760;80;20264;-79
2021/05/04 06:51:01;;;;;;;2.08;0.40;;;;;;;8.94;58.67;98463.66;2016248;80;20249;-79
2021/05/04 06:54:04;;;;;;;1.98;0.40;;;;;;;8.80;59.93;98457.84;2009132;80;20196;-79
2021/05/04 06:57:05;;;;;;;1.00;0.40;;;;;;;8.63;60.62;98464.94;2008782;80;20173;-77
2021/05/04 07:00:09;;;;;;;0.74;0.32;;;;;;;8.61;62.65;98462.34;2007593;80;20224;-74
2021/05/04 07:03:11;;;;;;;0.44;0.31;;;;;;;8.46;64.41;98463.41;2007299;80;20659;-73
2021/05/04 07:06:13;;;;;;;2.99;0.47;;;;;;;8.36;65.42;98456.59;2007079;80;20688;-74
2021/05/04 07:09:15;;;;;;;0.79;0.40;;;;;;;8.18;65.62;98461.91;2006765;80;20233;-74
2021/05/04 07:12:18;;;;;;;1.41;0.49;;;;;;;8.07;66.57;98458.56;2007253;80;20212;-76
2021/05/04 07:15:20;;;;;;;0.84;0.44;;;;;;;8.04;67.41;98461.19;2007378;80;20290;-78
2021/05/04 07:18:24;;;;;;;1.51;0.40;;;;;;;7.98;68.08;98459.53;2006644;80;20221;-80
2021/05/04 07:21:26;;;;;;;4.00;0.59;;;;;;;8.05;70.09;98468.06;2009161;80;20320;-77
2021/05/04 07:24:28;;;;;;;1.38;0.50;;;;;;;8.02;69.49;98450.88;2007103;80;20214;-76
2021/05/04 07:27:30;;;;;;;0.44;0.44;;;;;;;8.01;69.69;98464.66;2003906;80;20643;-78
2021/05/04 07:30:33;;;;;;;0.71;0.50;;;;;;;7.92;70.39;98443.22;2007117;80;20173;-76
2021/05/04 07:33:35;;;;;;;2.15;0.44;;;;;;;7.87;70.72;98461.34;2007177;80;20668;-74
2021/05/04 07:36:37;;;;;;;1.08;0.47;;;;;;;7.87;70.75;98467.38;2006259;80;20193;-75
2021/05/04 07:39:39;;;;;;;0.82;0.60;;;;;;;7.73;70.92;98452.88;2005072;80;20184;-76
2021/05/04 07:42:40;;;;;;;1.77;0.50;;;;;;;7.71;71.64;98452.84;2006918;80;20354;-75
2021/05/04 07:45:42;;;;;;;2.13;0.50;;;;;;;7.75;72.53;98464.03;2006129;80;20192;-76
2021/05/04 07:48:44;;;;;;;1.64;0.60;;;;;;;7.70;72.10;98468.38;2006304;80;20184;-75
2021/05/04 07:51:50;;;;;;;0.68;0.45;;;;;;;7.62;72.98;98465.00;2009817;80;20189;-75
2021/05/04 07:54:53;;;;;;;0.45;0.45;;;;;;;7.58;73.61;98466.75;2005223;80;20221;-75
2021/05/04 07:57:54;;;;;;;0.74;0.60;;;;;;;7.54;73.73;98458.19;2004430;80;20198;-76
2021/05/04 08:00:56;;;;;;;0.86;0.60;;;;;;;7.53;74.34;98447.81;2002897;80;20364;-75
2021/05/04 08:03:58;;;;;;;0.95;0.50;;;;;;;7.60;74.63;98446.94;2004311;80;20262;-76
2021/05/04 08:07:00;;;;;;;1.02;0.50;;;;;;;7.62;75.01;98452.94;2004500;80;20335;-76
2021/05/04 08:10:04;;;;;;;1.14;0.57;;;;;;;7.57;75.70;98445.25;2005151;80;20594;-73
2021/05/04 08:13:05;;;;;;;1.75;0.70;;;;;;;7.54;75.90;98441.78;2006635;80;20192;-73
2021/05/04 08:16:08;;;;;;;1.75;0.70;;;;;;;7.58;76.29;98452.13;2006469;80;20737;-73
2021/05/04 08:19:10;;;;;;;1.76;0.60;;;;;;;7.60;76.71;98443.50;2004986;80;20311;-73
2021/05/04 08:22:12;;;;;;;0.50;0.50;;;;;;;7.54;76.79;98426.28;2004027;80;20319;-73
2021/05/04 08:25:14;;;;;;;1.13;0.60;;;;;;;7.49;77.18;98431.50;2004563;80;20349;-73
2021/05/04 08:28:16;;;;;;;3.33;1.16;;;;;;;7.51;77.07;98447.00;2004995;80;21118;-72
2021/05/04 08:31:21;;;;;;;1.23;0.60;;;;;;;7.50;77.44;98450.44;2004844;80;20414;-76
2021/05/04 08:34:23;;;;;;;1.17;0.60;;;;;;;7.48;77.83;98447.00;2005006;80;20339;-77
2021/05/04 08:37:24;;;;;;;0.54;0.50;;;;;;;7.54;78.28;98453.00;2003945;80;20353;-76
2021/05/04 08:40:27;;;;;;;0.84;0.60;;;;;;;7.55;78.70;98459.88;2005884;80;20194;-75
2021/05/04 08:43:32;;;;;;;1.54;0.63;;;;;;;7.62;78.58;98465.00;2006291;80;20353;-76
2021/05/04 08:46:34;;;;;;;0.69;0.69;;;;;;;7.65;78.63;98460.66;2005909;80;20355;-76
2021/05/04 08:49:37;;;;;;;2.00;0.98;;;;;;;7.64;78.54;98451.19;2005844;80;20323;-75
2021/05/04 08:52:39;;;;;;;1.84;0.59;;;;;;;7.62;78.64;98449.50;2006326;80;20206;-76
2021/05/04 08:55:41;;;;;;;0.64;0.47;;;;;;;7.67;79.05;98458.91;2006751;80;20205;-76
2021/05/04 08:58:43;;;;;;;0.70;0.50;;;;;;;7.73;79.34;98453.72;2005540;80;20312;-75
2021/05/04 09:01:48;;;;;;;0.66;0.66;;;;;;;7.79;79.30;98448.50;2006263;80;21036;-72
2021/05/04 09:04:53;;;;;;;1.29;0.65;;;;;;;7.86;79.33;98454.47;2006442;80;20728;-72
2021/05/04 09:07:55;;;;;;;0.77;0.77;;;;;;;7.86;78.54;98444.97;2006079;80;21160;-71
2021/05/04 09:11:17;;;;;;;0.66;0.60;;;;;;;7.95;79.00;98432.84;2006211;80;20181;-72
2021/05/04 09:14:39;;;;;;;1.20;0.44;;;;;;;7.99;78.92;98440.56;2006267;80;20206;-72
2021/05/04 09:17:47;;;;;;;1.61;0.50;;;;;;;8.12;78.76;98441.31;2004925;80;20222;-73
2021/05/04 09:21:02;;;;;;;0.70;0.40;;;;;;;8.23;78.57;98426.53;2004500;80;20293;-73
2021/05/04 09:24:25;;;;;;;0.85;0.57;;;;;;;8.45;78.71;98433.22;2004581;80;21258;-74
2021/05/04 09:27:27;;;;;;;1.02;0.70;;;;;;;8.74;77.86;98440.63;2004113;80;20942;-74
2021/05/04 09:30:30;;;;;;;0.74;0.54;;;;;;;9.11;76.84;98439.28;2004171;80;20283;-75
2021/05/04 09:33:37;;;;;;;0.80;0.60;;;;;;;9.34;75.77;98426.88;2005171;80;20193;-74
2021/05/04 09:36:46;;;;;;;1.84;0.52;;;;;;;9.43;75.40;98428.47;2004332;80;20211;-75
2021/05/04 09:39:48;;;;;;;1.23;1.13;;;;;;;9.36;73.92;98431.16;2004660;80;20209;-74
2021/05/04 09:43:19;;;;;;;0.40;0.40;;;;;;;9.40;74.09;98434.56;2004451;80;20161;-74
2021/05/04 09:46:45;;;;;;;0.60;0.60;;;;;;;9.67;74.24;98415.09;2002155;80;20265;-74
2021/05/04 09:49:47;;;;;;;1.35;0.54;;;;;;;10.03;73.24;98425.72;2004734;80;20294;-75
2021/05/04 09:53:03;;;;;;;0.80;0.50;;;;;;;10.11;71.83;98414.34;2004348;80;20313;-74
2021/05/04 09:56:05;;;;;;;0.44;0.41;;;;;;;10.04;70.74;98425.69;2000680;80;20366;-73
2021/05/04 09:59:07;;;;;;;2.00;0.49;;;;;;;10.00;72.07;98430.09;2004713;80;20626;-73
2021/05/04 10:02:09;;;;;;;0.40;0.40;;;;;;;10.11;72.08;98444.63;2002454;80;20221;-72
2021/05/04 10:05:14;;;;;;;0.64;0.50;;;;;;;10.10;72.12;98437.72;2004737;80;20692;-80
2021/05/04 10:08:16;;;;;;;0.68;0.60;;;;;;;9.92;71.27;98442.34;2006303;80;20169;-77
2021/05/04 10:11:20;;;;;;;1.40;0.50;;;;;;;9.94;71.00;98424.16;2006825;80;20640;-80
2021/05/04 10:14:22;;;;;;;0.60;0.60;;;;;;;9.91;72.23;98435.44;2008796;80;20716;-80
2021/05/04 10:17:25;;;;;;;0.40;0.40;;;;;;;9.93;71.54;98428.50;2015360;80;20778;-81
2021/05/04 10:20:28;;;;;;;0.89;0.50;;;;;;;9.91;72.48;98429.41;2014703;80;20209;-79
2021/05/04 10:23:31;;;;;;;1.26;0.60;;;;;;;9.80;71.61;98432.19;2013861;80;20826;-77
2021/05/04 10:26:33;;;;;;;1.88;0.55;;;;;;;9.66;71.83;98441.91;2013221;80;20196;-73
2021/05/04 10:29:40;;;;;;;0.63;0.63;;;;;;;9.57;71.95;98436.88;2009601;80;20191;-81
2021/05/04 10:32:57;;;;;;;0.50;0.50;;;;;;;9.55;72.98;98442.09;2013985;80;20764;-81
2021/05/04 10:36:00;;;;;;;0.30;0.30;;;;;;;9.56;72.69;98445.53;2020598;80;20161;-85
2021/05/04 10:39:03;;;;;;;1.25;0.50;;;;;;;9.59;72.85;98441.16;2022777;80;20129;-83
2021/05/04 10:42:08;;;;;;;0.40;0.40;;;;;;;9.65;73.51;98435.88;2016993;80;20199;-82
2021/05/04 10:45:11;;;;;;;0.80;0.50;;;;;;;9.69;72.70;98426.31;2017670;80;21281;-81
2021/05/04 10:48:13;;;;;;;1.45;0.47;;;;;;;9.79;72.37;98417.50;2017498;80;20748;-76
2021/05/04 10:51:17;;;;;;;0.90;0.40;;;;;;;9.93;72.21;98423.31;2016745;80;20165;-82
2021/05/04 10:54:23;;;;;;;0.65;0.60;;;;;;;10.06;71.57;98404.94;2017505;80;20630;-83
2021/05/04 10:57:24;;;;;;;2.78;0.50;;;;;;;10.20;72.28;98392.56;2014240;80;20606;-77
2021/05/04 11:00:49;;;;;;;2.39;0.60;;;;;;;10.31;70.93;98411.41;2007604;80;20246;-80
2021/05/04 11:03:55;;;;;;;0.50;0.50;;;;;;;10.44;71.34;98418.09;2007569;80;20161;-78
2021/05/04 11:06:57;;;;;;;0.70;0.46;;;;;;;10.50;70.68;98414.50;2008082;80;20211;-80
2021/05/04 11:10:12;;;;;;;0.51;0.46;;;;;;;10.65;69.82;98413.34;2010651;80;20195;-77
2021/05/04 11:14:09;;;;;;;0.50;0.44;;;;;;;10.80;69.69;98405.25;2008409;80;20681;-80
2021/05/04 11:17:13;;;;;;;0.57;0.39;;;;;;;11.05;68.77;98409.00;1988432;80;20217;-79
2021/05/04 11:20:38;;;;;;;0.98;0.40;;;;;;;11.39;67.69;98397.84;2009108;80;20231;-79
2021/05/04 11:24:02;;;;;;;0.99;0.47;;;;;;;11.57;67.00;98392.22;2007954;80;20189;-80
2021/05/04 11:27:04;;;;;;;0.57;0.40;;;;;;;11.58;66.18;98388.72;2010053;80;20321;-81
2021/05/04 11:30:06;;;;;;;0.46;0.46;;;;;;;11.61;65.59;98375.63;2011834;80;20173;-79
2021/05/04 11:33:28;;;;;;;0.90;0.46;;;;;;;11.80;66.00;98370.84;2008139;80;21440;-79
2021/05/04 11:36:48;;;;;;;1.39;0.40;;;;;;;11.99;64.78;98356.47;2008458;80;20644;-78
2021/05/04 11:39:54;;;;;;;0.39;0.39;;;;;;;12.04;64.51;98366.78;2007370;80;20206;-77
2021/05/04 11:43:02;;;;;;;3.06;0.40;;;;;;;12.04;63.39;98370.22;2010722;80;20616;-79
2021/05/04 11:46:03;;;;;;;3.26;0.63;;;;;;;12.08;63.66;98371.84;2008094;80;20200;-79
2021/05/04 11:49:05;;;;;;;0.94;0.55;;;;;;;11.98;63.68;98375.56;2006180;80;20191;-78
2021/05/04 11:52:08;;;;;;;0.40;0.40;;;;;;;12.04;63.89;98380.63;2006702;80;20228;-77
2021/05/04 11:55:14;;;;;;;0.82;0.46;;;;;;;11.94;63.20;98384.34;2005996;80;20173;-78
2021/05/04 11:58:18;;;;;;;1.15;0.40;;;;;;;11.97;63.87;98394.69;2010107;80;20632;-78
2021/05/04 12:01:20;;;;;;;1.60;0.52;;;;;;;11.81;63.86;98382.97;2007543;80;20706;-76
2021/05/04 12:04:47;;;;;;;0.93;0.75;;;;;;;11.78;64.44;98389.09;2006752;80;20675;-77
2021/05/04 12:07:48;;;;;;;1.42;0.50;;;;;;;11.73;64.90;98379.69;2011780;80;20248;-79
2021/05/04 12:10:51;;;;;;;0.60;0.38;;;;;;;11.82;65.35;98373.41;2007107;80;20256;-79
2021/05/04 12:14:12;;;;;;;2.41;0.50;;;;;;;11.92;64.58;98372.28;2008076;80;20205;-79
2021/05/04 12:17:14;;;;;;;0.95;0.46;;;;;;;12.06;65.27;98368.44;2007841;80;20238;-79
2021/05/04 12:20:18;;;;;;;2.30;0.54;;;;;;;12.05;64.03;98368.47;2008290;80;20165;-80
2021/05/04 12:23:29;;;;;;;2.03;0.30;;;;;;;11.96;64.33;98374.75;2007743;80;20900;-80
2021/05/04 12:26:33;;;;;;;1.51;0.69;;;;;;;11.92;64.86;98356.69;2007835;80;20176;-80
2021/05/04 12:29:34;;;;;;;0.86;0.50;;;;;;;11.80;64.99;98371.72;2012015;80;20208;-80
2021/05/04 12:32:36;;;;;;;4.47;0.50;;;;;;;11.81;65.68;98369.97;2010206;80;20283;-79
2021/05/04 12:35:48;;;;;;;0.86;0.39;;;;;;;11.78;66.25;98360.50;2007690;80;20189;-79
2021/05/04 12:38:56;;;;;;;0.29;0.29;;;;;;;11.74;65.75;98357.97;2017262;80;20201;-81
2021/05/04 12:42:02;;;;;;;1.09;0.40;;;;;;;11.89;66.43;98348.97;2008316;80;20177;-78
2021/05/04 12:45:11;;;;;;;1.36;0.80;;;;;;;11.86;65.12;98343.84;2008762;80;20205;-78
2021/05/04 12:48:15;;;;;;;0.34;0.30;;;;;;;11.78;64.56;98351.81;2009329;80;20371;-79
2021/05/04 12:51:23;;;;;;;1.01;0.30;;;;;;;11.77;64.40;98353.56;2007675;80;20236;-79
2021/05/04 12:54:24;;;;;;;1.91;0.30;;;;;;;11.80;64.51;98343.09;2006856;80;20223;-79
2021/05/04 12:57:27;;;;;;;0.30;0.30;;;;;;;11.86;64.30;98351.66;2006127;80;20218;-78
2021/05/04 13:00:29;;;;;;;0.79;0.30;;;;;;;11.90;63.01;98341.13;2005685;78;21760;-78
2021/05/04 13:03:47;;;;;;;0.61;0.21;;;;;;;11.96;62.50;98334.88;2006280;80;20207;-77
2021/05/04 13:10:02;;;;;;;0.54;0.20;;;;;;;12.06;61.56;98329.41;2007867;80;20216;-79
2021/05/04 13:28:23;;;;;;;0.39;0.26;;;;;;;12.26;63.44;98352.28;2002585;81;20755;-79
2021/05/04 13:30:36;;;;;;;1.41;0.30;;;;;;;12.48;61.19;98336.03;2001020;81;20173;-77
2021/05/04 13:33:38;;;;;;;0.79;0.24;;;;;;;12.36;59.80;98347.66;2001385;81;20698;-76
2021/05/04 13:36:40;;;;;;;0.79;0.30;;;;;;;12.05;60.29;98324.25;2001054;81;20195;-77
2021/05/04 13:49:44;;;;;;;0.36;0.20;;;;;;;11.81;60.04;98341.34;2007600;80;20209;-74
2021/05/04 13:52:47;;;;;;;0.25;0.20;;;;;;;11.98;60.04;98336.56;2006864;80;20189;-78
2021/05/04 13:55:49;;;;;;;0.22;0.20;;;;;;;12.10;59.53;98348.38;2006611;80;20181;-77
2021/05/04 13:58:51;;;;;;;0.66;0.20;;;;;;;12.23;59.02;98348.91;2007258;80;20161;-77
2021/05/04 14:02:02;;;;;;;0.41;0.20;;;;;;;12.43;58.46;98335.31;2002692;78;23031;-77
2021/05/04 14:15:11;;;;;;;2.09;0.30;;;;;;;12.70;57.72;98337.09;2002357;81;20202;-75
2021/05/04 14:27:48;;;;;;;0.77;0.30;;;;;;;11.67;64.83;98357.31;2002310;81;20586;-78
2021/05/04 14:30:50;;;;;;;1.95;0.28;;;;;;;11.51;66.13;98355.97;2002122;78;20458;-77
2021/05/04 14:33:52;;;;;;;1.38;0.38;;;;;;;11.44;66.97;98333.59;2002371;81;20182;-77
2021/05/04 14:37:32;;;;;;;0.50;0.36;;;;;;;11.41;66.98;98342.34;2002460;81;21042;-78
2021/05/04 14:59:51;;;;;;;0.20;0.20;;;;;;;11.20;70.42;98340.25;2008677;80;20173;-78
2021/05/04 15:02:54;;;;;;;0.20;0.20;;;;;;;11.30;71.34;98335.69;2001199;78;21267;-79
2021/05/04 15:05:58;;;;;;;0.20;0.20;;;;;;;11.22;71.05;98330.69;2001518;81;20655;-79
2021/05/04 15:09:00;;;;;;;0.64;0.20;;;;;;;11.17;71.65;98329.94;2002159;81;20317;-80
2021/05/04 15:12:04;;;;;;;0.20;0.20;;;;;;;11.07;71.88;98331.03;2002308;81;20192;-79
2021/05/04 15:15:08;;;;;;;0.20;0.20;;;;;;;11.04;72.92;98333.72;2001527;80;20231;-79
2021/05/04 15:24:32;;;;;;;1.49;0.57;;;;;;;10.72;75.09;98347.41;2006649;80;20169;-78
2021/05/04 15:27:33;;;;;;;0.31;0.30;;;;;;;10.71;75.87;98341.38;2006112;80;20706;-75
2021/05/04 15:30:35;;;;;;;0.79;0.41;;;;;;;10.65;76.31;98338.06;2004923;79;20684;-75
2021/05/04 15:33:40;;;;;;;0.32;0.30;;;;;;;10.67;77.54;98337.13;2001581;81;20177;-76
2021/05/04 15:36:43;;;;;;;0.20;0.20;;;;;;;10.67;77.90;98333.69;2001259;81;20289;-75
2021/05/04 15:39:44;;;;;;;0.20;0.20;;;;;;;10.58;78.07;98321.75;2001746;81;20199;-74
2021/05/04 15:42:47;;;;;;;0.30;0.30;;;;;;;10.50;78.03;98327.13;2001406;81;20195;-75
2021/05/04 15:49:02;;;;;;;0.44;0.30;;;;;;;10.40;78.59;98327.31;2005947;80;20223;-73